ADDS METAR Data INFO
IDs: Format: Raw Decoded Include TAF

Data at: 0304 UTC 22 Apr 2018

KLNC 220255Z AUTO 33013G18KT 5SM BR OVC004 16/16 A2999 RMK AO2 60025 T01630156
KLNC 220235Z AUTO 32009KT 7SM OVC004 16/16 A2999 RMK AO2 T01630157
KLNC 220215Z AUTO 33004KT 7SM OVC004 16/16 A2997 RMK AO2 LTG DSNT SE T01620156
KLNC 220155Z AUTO 00000KT 5SM BR OVC004 16/16 A2995 RMK AO2 LTG DSNT E THRU S P0001 T01610155
KLNC 220135Z AUTO 06007KT 5SM BR OVC004 16/16 A2993 RMK AO2 P0001 T01620156
KLNC 220115Z AUTO 06010KT 5SM -VCTSRA BKN004 BKN015 OVC027 16/16 A2992 RMK AO2 LTG DSNT NE THRU SE P0001 T01630157
KLNC 220055Z AUTO 03008KT 4SM VCTSRA SCT004 BKN011 OVC048 17/16 A2993 RMK AO2 LTG DSNT E THRU SW P0023 T01650158
KLNC 220035Z AUTO 02006KT 5SM +TSRA BKN004 BKN009 OVC048 17/16 A2995 RMK AO2 LTG DSNT ALQS P0002 T01660159
KLNC 220015Z AUTO 03008KT 5SM BR OVC004 17/16 A2992 RMK AO2 LTG DSNT SW AND W T01670160
KLNC 212355Z AUTO 04009KT 5SM BR OVC004 17/16 A2992 RMK AO2 LTG DSNT SW 60001 T01690161 10182 20153
KLNC 212335Z AUTO 09010KT 4SM BR BKN006 OVC010 17/16 A2989 RMK AO2 T01700161
KLNC 212315Z AUTO 07009KT 4SM BR OVC006 17/16 A2991 RMK AO2 LTG DSNT NW T01700162
KLNC 212255Z AUTO 06008KT 5SM BR OVC008 17/16 A2992 RMK AO2 T01730164
KLNC 212235Z AUTO 05007KT 7SM OVC008 18/17 A2992 RMK AO2 LTG DSNT SE T01800167
KLNC 212215Z AUTO 06003KT 10SM OVC008 18/17 A2992 RMK AO2 LTG DSNT E T01820166
KLNC 212155Z AUTO 16006KT 10SM OVC010 18/17 A2991 RMK AO2 T01810166
KLNC 212135Z AUTO 16007KT 10SM BKN010 OVC014 18/17 A2990 RMK AO2 T01800165
KLNC 212115Z AUTO 17010G16KT 10SM BKN008 OVC013 18/17 A2991 RMK AO2 T01810168
KLNC 212055Z AUTO 16010KT 10SM OVC008 18/16 A2992 RMK AO2 60001 T01750164
KLNC 212035Z AUTO 16007KT 7SM OVC009 17/16 A2993 RMK AO2 T01680159
KLNC 212015Z AUTO 17007KT 7SM OVC007 16/16 A2994 RMK AO2 T01640156
KLNC 211955Z AUTO 17005KT 3SM +DZ BKN007 OVC012 16/15 A2995 RMK AO2 P0001 T01620154
KLNC 211935Z AUTO 16006KT 5SM RA BKN007 OVC012 16/15 A2995 RMK AO2 T01630154
KLNC 211915Z AUTO 16005KT 4SM VCTSRA BKN005 OVC010 16/15 A2996 RMK AO2 LTG DSNT NE AND E T01630154
KLNC 211855Z AUTO 16006KT 4SM VCTSDZ BKN005 BKN015 OVC023 17/16 A2996 RMK AO2 LTG DSNT NE AND E T01650156
KLNC 211835Z AUTO 16005KT 4SM RA OVC015 16/15 A2997 RMK AO2 LTG DSNT NE AND E T01570149
KLNC 211815Z AUTO 17003KT 7SM OVC017 15/14 A2998 RMK AO2 LTG DSNT NE AND SE T01530144
KLNC 211755Z AUTO 15005KT 4SM DZ OVC020 15/14 A2998 RMK AO2 LTG DSNT ALQS P0011 60024 T01520142 10171 20110
KLNC 211735Z AUTO 15007KT 7SM VCTSDZ BKN020 BKN039 OVC050 15/14 A2998 RMK AO2 LTG DSNT NE THRU S P0010 T01510141
KLNC 211715Z AUTO 17005KT 3SM TSRA SCT014 OVC018 15/14 A2999 RMK AO2 LTG DSNT ALQS P0010 T01470137
KLNC 211655Z AUTO 18006KT 7SM TSRA OVC018 15/14 A3000 RMK AO2 LTG DSNT ALQS P0013 T01510135
KLNC 211635Z AUTO 15007KT 3SM +TSRA OVC018 15/13 A2998 RMK AO2 LTG DSNT ALQS P0012 T01540130
KLNC 211615Z AUTO 18011G14KT 10SM TS OVC018 17/11 A3000 RMK AO2 LTG DSNT ALQS T01650114
KLNC 211555Z AUTO 15016G20KT 10SM -VCTSRA OVC018 17/11 A2997 RMK AO2 LTG DSNT SW AND NW T01670110
KLNC 211535Z AUTO 14017G22KT 10SM OVC020 17/10 A2999 RMK AO2 LTG DSNT N T01660102
KLNC 211515Z AUTO 14014KT 10SM OVC022 17/10 A2999 RMK AO2 LTG DSNT NW T01650099
KLNC 211455Z AUTO 15021G25KT 10SM OVC026 16/10 A3000 RMK AO2 T01640098
KLNC 211435Z AUTO 15014G21KT 10SM BKN028 BKN100 17/10 A3000 RMK AO2 LTG DSNT NW T01670097
KLNC 211415Z AUTO 15013KT 10SM SCT021 BKN030 BKN049 16/10 A3000 RMK AO2 LTG DSNT W AND NW T01570095
KLNC 211355Z AUTO 15013KT 10SM BKN021 BKN049 15/09 A3002 RMK AO2 LTG DSNT N T01510090
KLNC 211335Z AUTO 14011G15KT 10SM SCT060 14/08 A3001 RMK AO2 LTG DSNT N T01400084
KLNC 211315Z AUTO 13010KT 10SM SCT060 13/08 A3002 RMK AO2 T01340080
KLNC 211255Z AUTO 12007KT 10SM CLR 12/08 A3002 RMK AO2 T01200080
KLNC 211235Z AUTO 13007KT 10SM CLR 12/08 A3002 RMK AO2 T01150077
KLNC 211215Z AUTO 11008KT 10SM CLR 11/08 A3002 RMK AO2 LTG DSNT N T01120078
KLNC 211155Z AUTO 12007KT 10SM SCT065 11/08 A3003 RMK AO2 T01120077 10130 20112
KLNC 211135Z AUTO 11007KT 10SM SCT044 SCT050 BKN065 12/08 A3003 RMK AO2 LTG DSNT NW T01150077
KLNC 211115Z AUTO 11005KT 10SM SCT044 SCT050 BKN065 12/08 A3005 RMK AO2 T01150080
KLNC 211055Z AUTO 11004KT 10SM BKN055 12/08 A3005 RMK AO2 T01170077
KLNC 211035Z AUTO 11005KT 10SM BKN055 12/08 A3007 RMK AO2 T01200076
KLNC 211015Z AUTO 11005KT 10SM SCT047 BKN055 12/08 A3007 RMK AO2 T01200075
KLNC 210955Z AUTO 11003KT 10SM SCT049 OVC055 12/08 A3008 RMK AO2 T01210075
KLNC 210935Z AUTO 00000KT 10SM BKN049 OVC055 12/08 A3008 RMK AO2 T01200078
KLNC 210915Z AUTO 00000KT 10SM OVC047 12/08 A3009 RMK AO2 T01200075
KLNC 210855Z AUTO 00000KT 10SM OVC049 12/07 A3009 RMK AO2 T01170073
KLNC 210835Z AUTO 09003KT 10SM SCT049 11/07 A3008 RMK AO2 T01140070
KLNC 210815Z AUTO 09003KT 10SM CLR 12/07 A3008 RMK AO2 T01160072
KLNC 210755Z AUTO 11003KT 10SM CLR 12/07 A3008 RMK AO2 T01170072
KLNC 210735Z AUTO 10003KT 10SM SCT050 12/07 A3009 RMK AO2 T01170070
KLNC 210715Z AUTO 10004KT 10SM SCT050 12/07 A3010 RMK AO2 T01200070
KLNC 210655Z AUTO 11005KT 10SM SCT050 12/07 A3010 RMK AO2 T01200070
KLNC 210635Z AUTO 11005KT 10SM BKN050 12/07 A3010 RMK AO2 T01220070
KLNC 210615Z AUTO 11005KT 10SM SCT050 12/07 A3010 RMK AO2 T01240070
KLNC 210555Z AUTO 12003KT 10SM CLR 13/07 A3010 RMK AO2 LTG DSNT N T01310070 10199 20125 402040082
KLNC 210535Z AUTO 14004KT 10SM CLR 13/07 A3011 RMK AO2 T01290066
KLNC 210515Z AUTO 14005KT 10SM CLR 14/07 A3011 RMK AO2 T01350068
KLNC 210455Z AUTO 15006KT 10SM CLR 13/07 A3011 RMK AO2 T01340070
KLNC 210435Z AUTO 14007KT 10SM CLR 14/07 A3010 RMK AO2 T01430067
KLNC 210415Z AUTO 14008KT 10SM CLR 14/07 A3009 RMK AO2 T01430065
KLNC 210355Z AUTO 14010KT 10SM CLR 15/06 A3009 RMK AO2 T01480064
KLNC 210335Z AUTO 14009KT 10SM CLR 15/06 A3010 RMK AO2 T01490064
KLNC 210315Z AUTO 13007KT 10SM CLR 15/06 A3009 RMK AO2 T01510063
KLNC 210255Z AUTO 13008KT 10SM CLR 16/06 A3008 RMK AO2 T01550061
KLNC 210235Z AUTO 13006KT 10SM CLR 16/06 A3009 RMK AO2 T01590056
KLNC 210215Z AUTO 13007KT 10SM CLR 16/06 A3008 RMK AO2 LTG DSNT N T01630057
KLNC 210155Z AUTO 13006KT 10SM CLR 17/06 A3008 RMK AO2 T01680055
KLNC 210135Z AUTO 13006KT 10SM CLR 17/05 A3008 RMK AO2 T01720054
KLNC 210115Z AUTO 13009KT 10SM CLR 18/05 A3008 RMK AO2 T01770053
KLNC 210055Z AUTO 13010KT 10SM CLR 18/06 A3008 RMK AO2 T01780055
KLNC 210035Z AUTO 13008KT 10SM CLR 19/06 A3009 RMK AO2 T01860055
KLNC 210015Z AUTO 13008KT 10SM CLR 19/05 A3009 RMK AO2 T01940051
KLNC 202355Z AUTO 14009KT 10SM CLR 20/05 A3010 RMK AO2 T01980047 10204 20162
KLNC 202335Z AUTO 13012KT 10SM CLR 20/05 A3010 RMK AO2 T02000045
KLNC 202315Z AUTO 14010G15KT 10SM CLR 20/05 A3010 RMK AO2 LTG DSNT NW T02020046
KLNC 202255Z AUTO 13011G16KT 10SM CLR 20/04 A3010 RMK AO2 T02010042
KLNC 202235Z AUTO 14012G17KT 10SM CLR 20/04 A3010 RMK AO2 T02020041
KLNC 202215Z AUTO 12007G15KT 10SM CLR 20/04 A3011 RMK AO2 T02030042
KLNC 202155Z AUTO 12007KT 10SM CLR 20/04 A3013 RMK AO2 T02010039
KLNC 202135Z AUTO 13011G16KT 10SM CLR 20/04 A3012 RMK AO2 T02010036
KLNC 202115Z AUTO 14014KT 10SM CLR 20/04 A3013 RMK AO2 T01970036
KLNC 202055Z AUTO 11012G15KT 10SM CLR 20/04 A3014 RMK AO2 LTG DSNT NW T01970035
KLNC 202035Z AUTO 13009G15KT 090V150 10SM CLR 19/03 A3015 RMK AO2 LTG DSNT NW T01910031
KLNC 202015Z AUTO 10013G18KT 10SM CLR 20/03 A3016 RMK AO2 T01980030
KLNC 201955Z AUTO 12011G15KT 090V150 10SM CLR 19/03 A3019 RMK AO2 T01880025
KLNC 201935Z AUTO 14007KT 10SM CLR 19/03 A3020 RMK AO2 T01860026
KLNC 201915Z AUTO 11005KT 10SM CLR 19/04 A3022 RMK AO2 T01900035
KLNC 201855Z AUTO 11010KT 10SM CLR 18/03 A3023 RMK AO2 T01820030
KLNC 201835Z AUTO 12008G16KT 10SM CLR 18/03 A3024 RMK AO2 T01770025
KLNC 201815Z AUTO 13008KT 10SM CLR 17/03 A3025 RMK AO2 T01730031
KLNC 201755Z AUTO 11009G14KT 10SM CLR 16/02 A3028 RMK AO2 T01630023 10170 20086
KLNC 201735Z AUTO 16006KT 10SM CLR 16/02 A3029 RMK AO2 T01610020
KLNC 201715Z AUTO 13010G16KT 10SM CLR 17/02 A3029 RMK AO2 T01700019
KLNC 201655Z AUTO 13008KT 10SM CLR 16/02 A3030 RMK AO2 T01640017
KLNC 201635Z AUTO 10007KT 10SM CLR 16/01 A3031 RMK AO2 LTG DSNT NW T01560010
KLNC 201615Z AUTO 09008G14KT 10SM CLR 15/01 A3032 RMK AO2 T01540014
KLNC 201555Z AUTO 10010G16KT 10SM CLR 15/01 A3032 RMK AO2 T01470012
KLNC 201535Z AUTO 09010G14KT 10SM CLR 14/02 A3032 RMK AO2 T01410017
KLNC 201515Z AUTO 11010KT 10SM CLR 13/02 A3032 RMK AO2 T01330018